Bainbridge, Georgia
Current Conditions -  °F | °C
As of 4:15 PM on Sunday 23 Nov 2014 (Local Time) from KBGE Reporting Station
Heavy Rain Heavy Rain  
Wind Chill: 66°   Ceiling: 2100
Heat Index: 66°   Visibility: 5mi
Dew Point: 64°   Wind: 10mph
Humidity: 94%   Direction: 260°W
Pressure: 29.83"   Gusts: NA
Location:  30.91°N, 84.57°W
Report Text: KBGE 232115Z AUTO 26009KT 5SM +RA SCT009 BKN021 OVC060 19/18 A2983 RMK AO2 LTG DSNT NE E AND SW
Loading
Personal Weather Stations






























Interactive Weather Map New forecast layout! Learn more

10-Day Weather Forecast

Advertisements
Track Severe Weather on mobile